Marukimaru No8 — JH3492 — position and weather

sailwx.info

Track history (hours):
 
Tides and Currents Weather Stations Pressure Air Temp Water Temp Dewpoint Dewpoint Depression Visibility Wind Speed Wind Dir Waves Ship Positions

Marukimaru No8

Last reported at 2017-Sep-21 03:20 UTC. Time now 2017-Sep-22 00:44 UTC.
Position N 34°37' E 134°58'.

Length 84 m; draft 5.6 m.

Type: Cargo ship. MMSI: 431200607.

Date/timePositionNaut miles runAvg speedWind from/ knotsBaromVisibWave heightAir tempDewpointWater temp
2017-Sep-21 03:20N 34°37' E 134°58'3 9.0
2017-Sep-21 02:59N 34°37' E 135°02'510.6
2017-Sep-21 02:30N 34°36' E 135°08'611.5
2017-Sep-21 02:00N 34°36' E 135°15'511.1
2017-Sep-21 01:30N 34°37' E 135°22'4 8.3
2017-Sep-21 01:00N 34°38' E 135°27'2 3.2
2017-Sep-21 00:27N 34°39' E 135°29'0 0.2
2017-Sep-20 23:42N 34°39' E 135°29'0 0.0
2017-Sep-20 23:24N 34°39' E 135°29'0 0.0
2017-Sep-20 23:00N 34°39' E 135°29'0 0.0
2017-Sep-20 22:12N 34°39' E 135°29'0 0.0
2017-Sep-20 21:59N 34°39' E 135°29'1 1.3
2017-Sep-20 21:29N 34°38' E 135°29'1 2.8
2017-Sep-20 21:00N 34°38' E 135°27'1 1.5
2017-Sep-20 20:30N 34°38' E 135°27'1 2.9
2017-Sep-20 20:00N 34°39' E 135°25'2 3.0
2017-Sep-20 19:30N 34°40' E 135°25'0 0.0
2017-Sep-20 18:51N 34°40' E 135°25'0 0.0
2017-Sep-20 18:27N 34°40' E 135°25'0 0.0
2017-Sep-20 17:57N 34°40' E 135°25'0 0.0
2017-Sep-20 17:27N 34°40' E 135°25'0 0.0
2017-Sep-20 16:57N 34°40' E 135°25'0 0.0
2017-Sep-20 16:27N 34°40' E 135°25'0 0.0
2017-Sep-20 15:45N 34°40' E 135°25'0 0.0
2017-Sep-20 15:21N 34°40' E 135°25'0 0.0
2017-Sep-20 14:57N 34°40' E 135°25'0 0.0
2017-Sep-20 13:57N 34°40' E 135°25'0 0.0
2017-Sep-20 13:21N 34°40' E 135°25'0 0.0
2017-Sep-20 12:57N 34°40' E 135°25'0 0.0
2017-Sep-20 12:27N 34°40' E 135°25'0 0.0
2017-Sep-20 11:57N 34°40' E 135°25'0 0.0
2017-Sep-20 11:21N 34°40' E 135°25'0 0.0
2017-Sep-20 11:00N 34°40' E 135°25'1 2.1
2017-Sep-20 10:30N 34°39' E 135°25'5 9.9
2017-Sep-20 10:00N 34°36' E 135°20'510.5
2017-Sep-20 09:30N 34°35' E 135°14'611.8
2017-Sep-20 09:00N 34°35' E 135°07'5 9.4
2017-Sep-20 08:30N 34°37' E 135°01'  
Track history (hours):
 
Tides and Currents Weather Stations Pressure Air Temp Water Temp Dewpoint Dewpoint Depression Visibility Wind Speed Wind Dir Waves Ship Positions

Marukimaru No8

Last reported at 2017-Sep-21 03:20 UTC. Time now 2017-Sep-22 00:44 UTC.
Position N 34°37' E 134°58'.

Length 84 m; draft 5.6 m.

Type: Cargo ship. MMSI: 431200607.

Date/timePositionNaut miles runAvg speedWind from/ knotsBaromVisibWave heightAir tempDewpointWater temp
2017-Sep-21 03:20N 34°37' E 134°58'3 9.0
2017-Sep-21 02:59N 34°37' E 135°02'510.6
2017-Sep-21 02:30N 34°36' E 135°08'611.5
2017-Sep-21 02:00N 34°36' E 135°15'511.1
2017-Sep-21 01:30N 34°37' E 135°22'4 8.3
2017-Sep-21 01:00N 34°38' E 135°27'2 3.2
2017-Sep-21 00:27N 34°39' E 135°29'0 0.2
2017-Sep-20 23:42N 34°39' E 135°29'0 0.0
2017-Sep-20 23:24N 34°39' E 135°29'0 0.0
2017-Sep-20 23:00N 34°39' E 135°29'0 0.0
2017-Sep-20 22:12N 34°39' E 135°29'0 0.0
2017-Sep-20 21:59N 34°39' E 135°29'1 1.3
2017-Sep-20 21:29N 34°38' E 135°29'1 2.8
2017-Sep-20 21:00N 34°38' E 135°27'1 1.5
2017-Sep-20 20:30N 34°38' E 135°27'1 2.9
2017-Sep-20 20:00N 34°39' E 135°25'2 3.0
2017-Sep-20 19:30N 34°40' E 135°25'0 0.0
2017-Sep-20 18:51N 34°40' E 135°25'0 0.0
2017-Sep-20 18:27N 34°40' E 135°25'0 0.0
2017-Sep-20 17:57N 34°40' E 135°25'0 0.0
2017-Sep-20 17:27N 34°40' E 135°25'0 0.0
2017-Sep-20 16:57N 34°40' E 135°25'0 0.0
2017-Sep-20 16:27N 34°40' E 135°25'0 0.0
2017-Sep-20 15:45N 34°40' E 135°25'0 0.0
2017-Sep-20 15:21N 34°40' E 135°25'0 0.0
2017-Sep-20 14:57N 34°40' E 135°25'0 0.0
2017-Sep-20 13:57N 34°40' E 135°25'0 0.0
2017-Sep-20 13:21N 34°40' E 135°25'0 0.0
2017-Sep-20 12:57N 34°40' E 135°25'0 0.0
2017-Sep-20 12:27N 34°40' E 135°25'0 0.0
2017-Sep-20 11:57N 34°40' E 135°25'0 0.0
2017-Sep-20 11:21N 34°40' E 135°25'0 0.0
2017-Sep-20 11:00N 34°40' E 135°25'1 2.1
2017-Sep-20 10:30N 34°39' E 135°25'5 9.9
2017-Sep-20 10:00N 34°36' E 135°20'510.5
2017-Sep-20 09:30N 34°35' E 135°14'611.8
2017-Sep-20 09:00N 34°35' E 135°07'5 9.4
2017-Sep-20 08:30N 34°37' E 135°01'  

Dump ship's entire track history